createdAt,value
2019-01-02T00:04:50.569Z,865.40
2019-01-02T00:11:21.564Z,867.60
2019-01-02T00:17:53.140Z,869.13
2019-01-02T00:24:23.931Z,879.33
2019-01-02T00:30:55.173Z,872.87
2019-01-02T00:37:26.393Z,846.35
2019-01-02T00:40:50.910Z,827.75
2019-01-02T00:47:22.243Z,813.48
2019-01-02T00:50:46.746Z,803.85
2019-01-02T00:57:17.775Z,743.83
2019-01-02T01:03:48.536Z,708.65
2019-01-02T01:06:18.498Z,684.13
2019-01-02T01:12:49.643Z,670.05
2019-01-02T01:19:20.596Z,617.50
2019-01-02T01:22:45.054Z,599.17
2019-01-02T01:29:15.812Z,611.17
2019-01-02T01:35:46.336Z,660.78
2019-01-02T01:42:17.422Z,627.90
2019-01-02T01:45:41.786Z,616.23
2019-01-02T01:52:13.015Z,560.23
2019-01-02T01:58:44.678Z,542.55
2019-01-02T02:02:09.261Z,521.15
2019-01-02T02:08:40.021Z,523.80
2019-01-02T02:15:11.483Z,531.67
2019-01-02T02:21:42.192Z,522.98
2019-01-02T02:28:14.343Z,519.65
2019-01-02T02:34:44.985Z,516.95
2019-01-02T02:38:09.245Z,519.62
2019-01-02T02:44:40.000Z,514.80
2019-01-02T02:51:10.532Z,541.30
2019-01-02T02:57:41.969Z,547.30
2019-01-02T03:01:06.735Z,549.65
2019-01-02T03:07:37.853Z,570.20
2019-01-02T03:10:11.013Z,557.95
2019-01-02T03:16:42.433Z,570.10
2019-01-02T03:23:13.367Z,557.50
2019-01-02T03:26:38.335Z,548.00
2019-01-02T03:33:09.577Z,547.17
2019-01-02T03:39:40.472Z,521.63
2019-01-02T03:43:05.084Z,509.50
2019-01-02T03:49:36.280Z,506.80
2019-01-02T03:53:00.655Z,511.32
2019-01-02T03:59:31.522Z,536.13
2019-01-02T04:06:02.100Z,528.08
2019-01-02T04:12:32.820Z,532.58
2019-01-02T04:19:03.853Z,545.60
2019-01-02T04:25:34.519Z,538.77
2019-01-02T04:32:05.995Z,526.37
2019-01-02T04:38:37.134Z,561.37
2019-01-02T04:45:10.743Z,567.67
2019-01-02T04:48:35.091Z,571.58
2019-01-02T04:55:06.351Z,606.97
2019-01-02T05:01:37.156Z,590.45
2019-01-02T05:08:08.133Z,558.72
2019-01-02T05:14:39.030Z,554.75
2019-01-02T05:21:10.092Z,562.10
2019-01-02T05:24:34.402Z,555.45
2019-01-02T05:31:06.139Z,553.63
2019-01-02T05:37:37.193Z,572.45
2019-01-02T05:44:07.898Z,609.75
2019-01-02T05:47:32.589Z,591.70
2019-01-02T05:54:03.431Z,573.15
2019-01-02T06:00:39.844Z,554.08
2019-01-02T06:07:07.411Z,551.50
2019-01-02T06:13:37.915Z,550.08
2019-01-02T06:16:07.853Z,536.12
2019-01-02T06:22:38.932Z,553.70
2019-01-02T06:29:09.620Z,555.65
2019-01-02T06:35:40.502Z,555.30
2019-01-02T06:42:11.477Z,778.02
2019-01-02T06:45:35.630Z,774.05
2019-01-02T06:52:06.475Z,688.52
2019-01-02T06:55:31.020Z,683.83
2019-01-02T07:02:01.965Z,614.85
2019-01-02T07:08:33.138Z,662.08
2019-01-02T07:11:57.394Z,633.77
2019-01-02T07:18:28.537Z,678.23
2019-01-02T07:24:59.504Z,716.00
2019-01-02T07:31:30.459Z,835.35
2019-01-02T07:34:55.249Z,826.67
2019-01-02T07:41:53.353Z,839.15
2019-01-02T07:45:17.673Z,834.17
2019-01-02T07:52:17.795Z,819.40
2019-01-02T07:55:10.663Z,787.67
2019-01-02T08:02:03.477Z,745.95
2019-01-02T08:08:53.964Z,725.85
2019-01-02T08:12:18.290Z,709.20
2019-01-02T08:19:21.451Z,666.07
2019-01-02T08:22:08.677Z,651.22
2019-01-02T08:29:06.890Z,613.83
2019-01-02T08:35:43.765Z,586.55
2019-01-02T08:39:09.948Z,570.88
2019-01-02T08:45:49.518Z,533.35
2019-01-02T08:49:14.086Z,514.15
2019-01-02T08:55:57.003Z,495.82
2019-01-02T08:58:50.088Z,489.73
2019-01-02T09:05:27.231Z,465.12
2019-01-02T09:12:03.110Z,462.75
2019-01-02T09:15:27.424Z,464.20
2019-01-02T09:22:13.085Z,476.10
2019-01-02T09:29:11.632Z,477.10
2019-01-02T09:32:36.030Z,483.10
2019-01-02T09:39:14.964Z,442.15
2019-01-02T09:42:39.257Z,431.47
2019-01-02T09:50:04.035Z,405.18
2019-01-02T09:56:42.866Z,370.65
2019-01-02T10:03:36.144Z,372.60
2019-01-02T10:10:29.291Z,419.02
2019-01-02T10:17:20.016Z,380.95
2019-01-02T10:20:43.982Z,380.30
2019-01-02T10:23:32.139Z,368.63
2019-01-02T10:30:31.670Z,368.50
2019-01-02T10:37:16.545Z,350.35
2019-01-02T10:44:23.895Z,374.23
2019-01-02T10:47:48.092Z,367.25
2019-01-02T10:54:23.530Z,378.95
2019-01-02T10:57:48.163Z,374.60
2019-01-02T11:04:51.354Z,384.43
2019-01-02T11:11:52.746Z,390.32
2019-01-02T11:15:17.062Z,404.30
2019-01-02T11:21:53.307Z,400.68
2019-01-02T11:28:48.571Z,422.48
2019-01-02T11:31:40.865Z,417.53
2019-01-02T11:35:05.344Z,416.23
2019-01-02T11:41:39.003Z,427.02
2019-01-02T11:48:10.115Z,426.98
2019-01-02T11:51:34.549Z,426.48
2019-01-02T11:58:05.130Z,437.72
2019-01-02T12:04:35.891Z,451.95
2019-01-02T12:11:06.520Z,450.92
2019-01-02T12:14:30.908Z,456.07
2019-01-02T12:21:01.495Z,449.20
2019-01-02T12:23:31.439Z,457.30
2019-01-02T12:30:04.210Z,461.55
2019-01-02T12:36:35.319Z,478.00
2019-01-02T12:39:59.925Z,469.05
2019-01-02T12:46:30.440Z,463.50
2019-01-02T12:53:01.194Z,468.65
2019-01-02T12:56:26.091Z,470.92
2019-01-02T13:03:08.727Z,453.58
2019-01-02T13:06:33.405Z,459.55
2019-01-02T13:13:19.149Z,457.73
2019-01-02T13:19:58.723Z,459.40
2019-01-02T13:26:35.447Z,462.00
2019-01-02T13:33:33.812Z,465.60
2019-01-02T13:40:44.101Z,468.77
2019-01-02T13:47:41.170Z,456.40
2019-01-02T13:51:05.924Z,452.43
2019-01-02T13:57:36.441Z,463.90
2019-01-02T14:01:01.030Z,464.50
2019-01-02T14:07:31.355Z,477.07
2019-01-02T14:14:02.051Z,468.40
2019-01-02T14:17:26.534Z,474.65
2019-01-02T14:23:57.913Z,474.12
2019-01-02T14:30:29.014Z,465.82
2019-01-02T14:37:00.300Z,472.35
2019-01-02T14:40:24.601Z,465.70
2019-01-02T14:46:55.399Z,455.60
2019-01-02T14:53:26.726Z,462.82
2019-01-02T14:59:57.633Z,459.98
2019-01-02T15:06:28.480Z,455.95
2019-01-02T15:12:59.622Z,462.45
2019-01-02T15:16:24.394Z,465.75
2019-01-02T15:22:54.511Z,462.62
2019-01-02T15:29:25.813Z,456.30
2019-01-02T15:31:55.744Z,455.85
2019-01-02T15:38:27.169Z,428.65
2019-01-02T15:41:51.605Z,409.73
2019-01-02T15:48:23.127Z,370.88
2019-01-02T15:51:47.514Z,339.83
2019-01-02T15:58:18.908Z,286.45
2019-01-02T16:04:49.334Z,250.10
2019-01-02T16:08:13.989Z,228.10
2019-01-02T16:14:44.832Z,197.02
2019-01-02T16:18:09.170Z,180.27
2019-01-02T16:24:39.727Z,268.27
2019-01-02T16:31:10.461Z,760.75
2019-01-02T16:37:41.028Z,773.90
2019-01-02T16:44:12.152Z,809.20
2019-01-02T16:50:42.290Z,849.38
2019-01-02T16:57:13.325Z,796.20
2019-01-02T17:00:37.606Z,813.40
2019-01-02T17:07:08.617Z,832.25
2019-01-02T17:13:39.514Z,828.30
2019-01-02T17:17:04.167Z,841.23
2019-01-02T17:23:35.272Z,790.10
2019-01-02T17:30:08.244Z,789.37
2019-01-02T17:32:38.347Z,798.35
2019-01-02T17:39:09.483Z,835.00
2019-01-02T17:45:40.137Z,837.55
2019-01-02T17:52:10.926Z,815.62
2019-01-02T17:55:35.780Z,814.08
2019-01-02T18:02:06.999Z,804.12
2019-01-02T18:08:37.927Z,817.35
2019-01-02T18:12:02.562Z,811.30
2019-01-02T18:18:33.790Z,806.58
2019-01-02T18:21:58.566Z,804.33
2019-01-02T18:28:29.775Z,810.57
2019-01-02T18:35:00.454Z,800.68
2019-01-02T18:41:31.270Z,826.98
2019-01-02T18:48:02.482Z,801.62
2019-01-02T18:54:33.475Z,795.30
2019-01-02T19:01:04.664Z,791.60
2019-01-02T19:07:35.198Z,794.60
2019-01-02T19:14:06.009Z,801.92
2019-01-02T19:20:36.868Z,802.17
2019-01-02T19:27:08.026Z,799.52
2019-01-02T19:33:39.197Z,798.15
2019-01-02T19:36:09.272Z,803.48
2019-01-02T19:42:40.337Z,800.25
2019-01-02T19:49:11.256Z,800.65
2019-01-02T19:52:35.772Z,798.92
2019-01-02T19:59:06.888Z,822.93
2019-01-02T20:05:38.528Z,798.70
2019-01-02T20:09:03.184Z,793.97
2019-01-02T20:15:33.707Z,815.12
2019-01-02T20:22:04.067Z,823.93
2019-01-02T20:28:35.175Z,844.03
2019-01-02T20:32:04.251Z,829.37
2019-01-02T20:38:32.255Z,836.08
2019-01-02T20:45:03.302Z,821.85
2019-01-02T20:51:33.897Z,832.47
2019-01-02T20:58:04.583Z,825.62
2019-01-02T21:04:35.511Z,824.93
2019-01-02T21:07:59.976Z,830.57
2019-01-02T21:14:30.701Z,791.83
2019-01-02T21:21:01.195Z,840.72
2019-01-02T21:24:25.504Z,824.32
2019-01-02T21:30:59.380Z,819.23
2019-01-02T21:34:23.567Z,831.17
2019-01-02T21:40:54.651Z,799.30
2019-01-02T21:47:25.628Z,801.85
2019-01-02T21:50:50.431Z,803.85
2019-01-02T21:57:21.604Z,806.20
2019-01-02T22:00:46.095Z,812.97
2019-01-02T22:07:16.794Z,814.40
2019-01-02T22:10:41.270Z,802.52
2019-01-02T22:17:11.677Z,797.83
2019-01-02T22:20:36.083Z,801.65
2019-01-02T22:27:07.156Z,847.72
2019-01-02T22:30:31.318Z,801.65
2019-01-02T22:37:02.479Z,802.37
2019-01-02T22:39:51.879Z,792.87
2019-01-02T22:42:21.763Z,796.25
2019-01-02T22:48:53.328Z,785.20
2019-01-02T22:55:23.953Z,791.65
2019-01-02T23:01:57.278Z,780.92
2019-01-02T23:08:29.563Z,775.60
2019-01-02T23:15:11.286Z,784.70
2019-01-02T23:21:58.023Z,803.75
2019-01-02T23:28:30.528Z,793.00
2019-01-02T23:35:17.696Z,793.20
2019-01-02T23:42:07.067Z,787.33
2019-01-02T23:48:54.443Z,798.85
2019-01-02T23:52:18.942Z,793.23
2019-01-02T23:59:07.957Z,791.33
